Terminal Aerodrome Forecast
Issued by NWS

Home | Current Version | Previous Version | Text Only | Print | Product List | Glossary On
Versions: 1 2 3 4 5 6 7 8 9 10 11 12 13 14 15 16 17
000
FTUS44 KMAF 280037 AAA
TAFFST
TAF AMD
KFST 280037Z 2801/2824 16010KT P6SM SKC
     FM281200 18008KT P6SM SKC
     FM281600 14009G19KT P6SM SCT070 SCT250=

USA.gov is the U.S. government's official web portal to all federal, state and local government web resources and services.